Terminal Aerodrome Forecast
Issued by NWS

Current Version | Previous Version | Graphics & Text | Print | Product List | Glossary On
Versions: 1 2 3 4 5 6 7 8 9 10 11 12 13 14 15 16 17 18 19 20 21 22
000
FTUS41 KILN 260224 AAA
TAFLUK
TAF AMD
KLUK 260224Z 2602/2624 VRB03KT P6SM SCT250
     FM260800 00000KT 4SM BR BKN250
     FM261300 17008KT P6SM SCT250
     FM261600 18011G18KT P6SM SCT250=

USA.gov is the U.S. government's official web portal to all federal, state and local government web resources and services.